Time;durP1;ratioP1;P1;durP2;ratioP2;P2;SDS_P1;SDS_P2;PMS_P1;PMS_P2;Temp;Humidity;BMP_temperature;BMP_pressure;BME280_temperature;BME280_humidity;BME280_pressure;Samples;Min_cycle;Max_cycle;Signal;HPM_P1;HPM_P2
2023/03/04 00:00:23;;;;;;;;;2.50;2.50;;;;;20.72;31.50;102622.56;5034065;28;45294;-73
2023/03/04 00:02:49;;;;;;;;;2.75;2.00;;;;;20.78;31.42;102631.81;5034377;28;45316;-73
2023/03/04 00:05:14;;;;;;;;;2.50;2.00;;;;;20.77;31.79;102635.41;5033771;28;45292;-72
2023/03/04 00:07:39;;;;;;;;;2.00;2.00;;;;;20.77;31.51;102635.41;5034179;28;46092;-73
2023/03/04 00:10:06;;;;;;;;;2.50;2.00;;;;;20.77;31.74;102637.22;5034200;28;45232;-73
2023/03/04 00:12:31;;;;;;;;;3.00;3.00;;;;;20.77;31.79;102639.84;5033390;28;45284;-73
2023/03/04 00:14:56;;;;;;;;;3.00;3.00;;;;;20.71;31.72;102630.66;5033732;28;45411;-73
2023/03/04 00:17:22;;;;;;;;;4.25;3.00;;;;;20.75;31.51;102637.34;5034064;28;46089;-72
2023/03/04 00:19:47;;;;;;;;;2.00;2.00;;;;;20.77;31.57;102639.84;5033663;28;45434;-73
2023/03/04 00:22:12;;;;;;;;;2.75;2.00;;;;;20.71;31.43;102634.13;5034108;28;45366;-73
2023/03/04 00:24:38;;;;;;;;;2.00;1.00;;;;;20.69;31.91;102632.56;5034041;28;45433;-73
2023/03/04 00:27:03;;;;;;;;;3.00;3.00;;;;;20.73;31.51;102634.84;5033953;28;45419;-73
2023/03/04 00:29:28;;;;;;;;;3.00;1.50;;;;;20.74;31.69;102649.72;5033851;28;45578;-73
2023/03/04 00:31:54;;;;;;;;;3.50;2.00;;;;;20.74;31.57;102641.81;5033909;28;45315;-73
2023/03/04 00:34:19;;;;;;;;;4.00;2.00;;;;;20.73;31.66;102644.59;5033630;28;45474;-73
2023/03/04 00:36:45;;;;;;;;;3.75;3.00;;;;;20.74;31.68;102641.81;4992118;28;1183089;-72
2023/03/04 00:39:11;;;;;;;;;4.25;3.00;;;;;20.74;31.72;102644.44;5035201;28;45438;-72
2023/03/04 00:41:37;;;;;;;;;5.00;3.00;;;;;20.73;31.50;102641.94;5035375;28;45383;-72
2023/03/04 00:44:03;;;;;;;;;3.25;3.00;;;;;20.73;31.73;102647.22;5035222;28;45475;-73
2023/03/04 00:46:29;;;;;;;;;3.00;3.00;;;;;20.72;31.37;102643.75;5035065;28;45390;-73
2023/03/04 00:48:54;;;;;;;;;2.00;2.00;;;;;20.71;31.39;102634.13;5034746;28;45451;-73
2023/03/04 00:51:19;;;;;;;;;1.50;1.50;;;;;20.63;31.59;102631.28;5035174;28;45852;-73
2023/03/04 00:53:46;;;;;;;;;2.00;1.00;;;;;20.72;31.39;102642.91;5035270;28;45269;-72
2023/03/04 00:56:11;;;;;;;;;2.00;2.00;;;;;20.72;31.61;102646.38;5034827;28;46911;-72
2023/03/04 00:58:38;;;;;;;;;2.00;2.00;;;;;20.71;31.42;102644.69;5034745;28;45216;-72
2023/03/04 01:01:03;;;;;;;;;3.00;3.00;;;;;20.70;31.47;102640.38;5035158;28;45387;-72
2023/03/04 01:03:31;;;;;;;;;2.00;2.00;;;;;20.71;31.70;102641.22;5034525;28;45432;-72
2023/03/04 01:05:57;;;;;;;;;4.00;2.50;;;;;20.70;31.62;102636.91;5016919;28;47198;-72
2023/03/04 01:08:22;;;;;;;;;2.25;2.25;;;;;20.69;31.49;102635.22;5034254;28;45338;-72
2023/03/04 01:10:47;;;;;;;;;1.50;1.50;;;;;20.70;31.62;102643.03;5034853;28;45265;-72
2023/03/04 01:13:13;;;;;;;;;2.00;2.00;;;;;20.71;31.45;102638.59;5034936;28;45642;-72
2023/03/04 01:15:38;;;;;;;;;2.00;2.00;;;;;20.69;31.74;102630.75;5034468;28;46022;-73
2023/03/04 01:18:03;;;;;;;;;3.00;3.00;;;;;20.70;31.57;102636.91;5034567;28;45271;-72
2023/03/04 01:20:29;;;;;;;;;2.00;2.00;;;;;20.71;31.82;102634.13;5034913;28;45267;-72
2023/03/04 01:22:54;;;;;;;;;1.75;1.75;;;;;20.71;31.30;102626.19;5034885;28;45359;-72
2023/03/04 01:25:19;;;;;;;;;1.75;1.75;;;;;20.67;31.25;102619.47;5018968;28;47599;-72
2023/03/04 01:27:45;;;;;;;;;2.50;2.00;;;;;20.68;31.21;102623.81;5037994;28;45359;-72
2023/03/04 01:30:11;;;;;;;;;3.25;1.75;;;;;20.63;31.36;102613.59;5038163;28;45225;-72
2023/03/04 01:32:36;;;;;;;;;1.00;1.00;;;;;20.70;31.37;102628.97;5037867;28;45318;-73
2023/03/04 01:35:01;;;;;;;;;1.00;1.00;;;;;20.70;31.59;102623.66;5037567;28;46233;-72
2023/03/04 01:37:27;;;;;;;;;5.00;3.00;;;;;20.71;31.58;102623.53;5037835;28;45430;-72
2023/03/04 01:39:52;;;;;;;;;2.75;2.75;;;;;20.71;31.38;102626.19;5038007;28;45371;-73
2023/03/04 01:42:23;;;;;;;;;3.00;1.00;;;;;20.69;31.17;102620.19;5037919;28;45406;-72
2023/03/04 01:44:50;;;;;;;;;2.00;2.00;;;;;20.66;31.43;102616.97;5037637;28;46881;-72
2023/03/04 01:47:17;;;;;;;;;3.00;2.00;;;;;20.68;31.79;102615.03;5037136;28;45374;-73
2023/03/04 01:49:42;;;;;;;;;2.00;2.00;;;;;20.70;31.53;102618.38;5037765;28;45404;-72
2023/03/04 01:52:12;;;;;;;;;1.25;1.25;;;;;20.70;31.76;102618.38;5037812;28;45405;-73
2023/03/04 01:54:38;;;;;;;;;2.00;2.00;;;;;20.70;31.51;102615.75;5036560;28;46167;-72
2023/03/04 01:57:24;;;;;;;;;2.25;1.50;;;;;20.61;31.24;102591.72;5037542;28;45299;-73
2023/03/04 02:00:20;;;;;;;;;2.75;2.75;;;;;20.69;31.38;102598.19;5037681;28;45367;-72
2023/03/04 02:02:48;;;;;;;;;2.00;2.00;;;;;20.68;31.24;102601.81;5037007;28;45514;-72
2023/03/04 02:05:14;;;;;;;;;2.00;2.00;;;;;20.68;31.39;102600.00;5037355;28;46161;-73
2023/03/04 02:07:41;;;;;;;;;2.50;2.50;;;;;20.67;31.38;102595.66;5037276;28;45252;-73
2023/03/04 02:10:07;;;;;;;;;2.25;2.00;;;;;20.67;31.48;102592.19;5037608;28;45270;-72
2023/03/04 02:12:33;;;;;;;;;1.75;1.75;;;;;20.67;31.50;102592.19;5037268;28;45458;-72
2023/03/04 02:14:58;;;;;;;;;1.75;1.75;;;;;20.68;31.14;102596.53;5036391;28;46928;-72
2023/03/04 02:17:27;;;;;;;;;1.25;1.25;;;;;20.67;31.60;102593.03;5037518;28;45178;-72
2023/03/04 02:20:01;;;;;;;;;3.00;2.00;;;;;20.67;31.18;102584.25;5037468;28;45398;-72
2023/03/04 02:22:27;;;;;;;;;1.25;1.25;;;;;20.67;31.57;102581.59;5037293;28;45245;-73
2023/03/04 02:24:59;;;;;;;;;1.00;1.00;;;;;20.68;31.26;102583.28;5036874;28;47164;-72
2023/03/04 02:27:24;;;;;;;;;2.00;1.75;;;;;20.66;31.11;102579.94;5037282;28;45297;-72
2023/03/04 02:29:49;;;;;;;;;1.00;1.00;;;;;20.59;31.48;102567.22;5036822;28;45281;-72
2023/03/04 02:32:15;;;;;;;;;2.00;2.00;;;;;20.66;31.43;102577.31;5037084;28;45359;-72
2023/03/04 02:34:46;;;;;;;;;2.25;2.25;;;;;20.66;31.56;102577.31;5036466;28;46766;-72
2023/03/04 02:37:12;;;;;;;;;3.75;1.50;;;;;20.66;31.18;102574.66;5035708;28;45390;-72
2023/03/04 02:39:46;;;;;;;;;3.00;2.00;;;;;20.66;31.49;102582.59;5037201;28;45481;-72
2023/03/04 02:42:11;;;;;;;;;2.00;1.00;;;;;20.59;31.03;102574.31;5037098;28;45298;-72
2023/03/04 02:44:45;;;;;;;;;2.00;2.00;;;;;20.65;31.31;102583.53;5036220;28;45292;-73
2023/03/04 02:47:12;;;;;;;;;1.25;1.25;;;;;20.66;31.51;102585.22;5036223;28;45463;-72
2023/03/04 02:49:39;;;;;;;;;2.50;1.25;;;;;20.66;31.11;102586.06;5036915;28;45403;-72
2023/03/04 02:52:19;;;;;;;;;2.00;1.00;;;;;20.65;31.33;102587.03;5036867;28;45388;-72
2023/03/04 02:54:45;;;;;;;;;3.00;1.50;;;;;20.63;31.09;102581.03;5036353;28;46308;-72
2023/03/04 02:57:12;;;;;;;;;1.00;1.00;;;;;20.56;31.29;102566.63;5036681;28;45358;-72
2023/03/04 02:59:39;;;;;;;;;3.00;2.00;;;;;20.64;31.34;102588.00;5036450;28;45467;-72
2023/03/04 03:02:06;;;;;;;;;2.00;2.00;;;;;20.63;31.28;102584.50;5036663;28;45475;-72
2023/03/04 03:04:32;;;;;;;;;3.00;1.75;;;;;20.62;31.26;102582.84;5018484;28;48493;-73
2023/03/04 03:06:57;;;;;;;;;1.00;1.00;;;;;20.63;31.51;102583.69;5036385;28;45318;-72
2023/03/04 03:09:23;;;;;;;;;1.00;1.00;;;;;20.64;31.42;102585.34;5036573;28;45346;-72
2023/03/04 03:11:48;;;;;;;;;2.00;1.25;;;;;20.63;31.19;102587.13;5036387;28;45253;-72
2023/03/04 03:14:14;;;;;;;;;2.75;2.75;;;;;20.60;31.43;102581.28;5035935;28;45339;-73
2023/03/04 03:16:39;;;;;;;;;2.00;2.00;;;;;20.63;31.31;102592.44;5035663;28;45351;-72
2023/03/04 03:19:04;;;;;;;;;1.00;1.00;;;;;20.60;31.17;102583.94;5018547;28;45266;-73
2023/03/04 03:21:30;;;;;;;;;1.00;1.00;;;;;20.63;31.66;102592.44;5036352;28;45393;-72
2023/03/04 03:23:55;;;;;;;;;1.00;1.00;;;;;20.64;31.40;102590.63;5036015;28;46419;-73
2023/03/04 03:26:21;;;;;;;;;1.00;1.00;;;;;20.62;31.18;102596.06;5036189;28;45364;-72
2023/03/04 03:28:46;;;;;;;;;3.00;2.00;;;;;20.62;31.20;102597.84;5036163;28;45444;-72
2023/03/04 03:31:12;;;;;;;;;1.00;1.00;;;;;20.62;31.34;102598.72;5036122;28;45374;-73
2023/03/04 03:33:38;;;;;;;;;2.00;2.00;;;;;20.62;31.37;102593.41;5035956;28;47140;-72
2023/03/04 03:36:04;;;;;;;;;2.50;1.75;;;;;20.54;31.40;102576.50;5035663;28;45350;-72
2023/03/04 03:38:29;;;;;;;;;1.00;1.00;;;;;20.60;31.13;102589.22;5036167;28;45295;-73
2023/03/04 03:40:55;;;;;;;;;2.25;2.25;;;;;20.63;31.51;102588.97;5036071;28;45309;-73
2023/03/04 03:43:20;;;;;;;;;2.00;2.00;;;;;20.62;31.41;102585.47;5035559;28;46107;-72
2023/03/04 03:45:45;;;;;;;;;2.00;2.00;;;;;20.61;31.22;102586.44;5035770;28;45283;-73
2023/03/04 03:48:11;;;;;;;;;1.25;1.25;;;;;20.60;31.25;102587.41;5035627;28;45249;-72
2023/03/04 03:50:36;;;;;;;;;2.50;2.00;;;;;20.60;31.35;102584.78;5035857;28;45331;-72
2023/03/04 03:53:02;;;;;;;;;1.25;1.00;;;;;20.59;31.49;102585.72;5035765;28;45375;-72
2023/03/04 03:55:27;;;;;;;;;2.00;2.00;;;;;20.60;31.28;102581.28;5035639;28;45418;-72
2023/03/04 03:57:53;;;;;;;;;1.50;1.50;;;;;20.54;31.31;102568.56;5035521;28;45331;-72
2023/03/04 04:00:18;;;;;;;;;1.00;1.00;;;;;20.55;31.10;102572.91;5035754;28;45430;-72
2023/03/04 04:02:44;;;;;;;;;1.50;1.50;;;;;20.59;31.39;102580.44;5035771;28;45461;-72
2023/03/04 04:05:10;;;;;;;;;2.00;2.00;;;;;20.61;31.32;102585.59;5035725;28;45479;-72
2023/03/04 04:07:36;;;;;;;;;0.50;0.50;;;;;20.55;31.20;102575.53;5035929;28;45403;-72
2023/03/04 04:10:03;;;;;;;;;1.00;1.00;;;;;20.61;31.49;102586.44;5035146;28;45581;-72
2023/03/04 04:12:28;;;;;;;;;2.00;2.00;;;;;20.57;31.33;102574.44;5035104;28;47185;-72
2023/03/04 04:14:53;;;;;;;;;1.00;1.00;;;;;20.60;31.13;102587.41;5035238;28;45506;-73
2023/03/04 04:17:19;;;;;;;;;3.00;1.75;;;;;20.59;31.12;102576.94;5035561;28;45670;-72
2023/03/04 04:19:44;;;;;;;;;1.00;1.00;;;;;20.59;31.07;102584.88;5035563;28;45484;-72
2023/03/04 04:22:16;;;;;;;;;1.00;1.00;;;;;20.60;31.22;102586.56;5035552;28;46301;-72
2023/03/04 04:24:42;;;;;;;;;1.00;1.00;;;;;20.59;31.20;102583.09;5035380;28;45281;-72
2023/03/04 04:27:07;;;;;;;;;3.00;2.00;;;;;20.59;31.10;102584.88;5034988;28;45395;-72
2023/03/04 04:29:32;;;;;;;;;2.00;1.75;;;;;20.60;30.94;102584.78;5035614;28;45364;-72
2023/03/04 04:31:58;;;;;;;;;1.00;1.00;;;;;20.60;30.98;102582.13;5031939;28;46112;-73
2023/03/04 04:34:25;;;;;;;;;2.75;2.00;;;;;20.60;31.15;102579.50;5034879;28;45241;-72
2023/03/04 04:36:51;;;;;;;;;2.00;2.00;;;;;20.61;31.35;102593.53;5035209;28;45589;-72
2023/03/04 04:39:16;;;;;;;;;2.00;1.00;;;;;20.60;31.15;102583.94;5035262;28;45440;-72
2023/03/04 04:41:44;;;;;;;;;4.00;1.25;;;;;20.60;30.98;102584.78;5034862;28;46324;-72
2023/03/04 04:44:10;;;;;;;;;1.00;1.00;;;;;20.60;31.36;102582.13;5035202;28;45414;-73
2023/03/04 04:46:36;;;;;;;;;0.50;0.50;;;;;20.61;31.25;102588.25;5034623;28;45382;-73
2023/03/04 04:49:03;;;;;;;;;1.00;1.00;;;;;20.60;31.29;102582.13;5017099;28;46062;-72
2023/03/04 04:51:28;;;;;;;;;2.00;2.00;;;;;20.60;31.13;102590.06;5035188;28;47279;-72
2023/03/04 04:53:55;;;;;;;;;1.00;1.00;;;;;20.61;31.05;102589.09;5034980;28;45193;-72
2023/03/04 04:56:23;;;;;;;;;1.00;1.00;;;;;20.62;31.25;102592.56;5034763;28;45430;-73
2023/03/04 04:58:49;;;;;;;;;0.00;0.00;;;;;20.60;31.23;102592.72;5035239;28;45259;-72
2023/03/04 05:01:15;;;;;;;;;1.75;1.75;;;;;20.61;31.35;102598.81;5038125;28;46277;-72
2023/03/04 05:03:41;;;;;;;;;1.75;1.00;;;;;20.61;31.18;102598.81;5038463;28;45404;-73
2023/03/04 05:06:09;;;;;;;;;0.00;0.00;;;;;20.60;31.36;102595.34;5038674;28;45350;-72
2023/03/04 05:08:35;;;;;;;;;1.25;1.25;;;;;20.60;31.44;102591.88;5038531;28;45248;-72
2023/03/04 05:11:01;;;;;;;;;1.25;1.00;;;;;20.60;31.10;102595.34;5037823;28;45336;-73
2023/03/04 05:13:27;;;;;;;;;1.50;0.75;;;;;20.52;31.17;102587.22;5038276;28;45375;-73
2023/03/04 05:15:54;;;;;;;;;2.00;1.25;;;;;20.61;31.11;102609.41;5038044;28;46083;-72
2023/03/04 05:18:21;;;;;;;;;1.75;1.00;;;;;20.60;31.21;102605.94;5038340;28;46160;-73
2023/03/04 05:20:55;;;;;;;;;2.75;1.00;;;;;20.59;31.02;102604.25;5037983;28;47294;-72
2023/03/04 05:23:21;;;;;;;;;1.25;1.25;;;;;20.60;31.11;102602.44;5038040;28;45381;-72
2023/03/04 05:25:46;;;;;;;;;1.50;1.50;;;;;20.58;31.28;102602.56;5037691;28;45377;-72
2023/03/04 05:28:12;;;;;;;;;1.50;1.50;;;;;20.59;31.25;102603.41;5038366;28;45319;-72
2023/03/04 05:30:38;;;;;;;;;1.00;1.00;;;;;20.58;31.03;102599.09;5037871;28;46321;-72
2023/03/04 05:33:04;;;;;;;;;1.25;1.25;;;;;20.50;31.06;102594.44;5037897;28;45359;-72
2023/03/04 05:35:30;;;;;;;;;0.00;0.00;;;;;20.59;30.96;102603.41;5037660;28;45306;-72
2023/03/04 05:37:55;;;;;;;;;0.50;0.50;;;;;20.58;31.34;102604.38;5037662;28;45271;-72
2023/03/04 05:40:20;;;;;;;;;2.50;1.00;;;;;20.55;31.32;102599.34;5037836;28;45365;-72
2023/03/04 05:42:46;;;;;;;;;1.00;1.00;;;;;20.59;31.23;102608.69;5037357;28;45297;-72
2023/03/04 05:45:11;;;;;;;;;1.00;1.00;;;;;20.58;31.07;102599.91;5037781;28;45626;-73
2023/03/04 05:47:36;;;;;;;;;1.00;0.75;;;;;20.58;31.33;102605.19;5037777;28;45286;-72
2023/03/04 05:50:02;;;;;;;;;1.00;1.00;;;;;20.58;31.27;102610.50;5037620;28;45370;-72
2023/03/04 05:52:27;;;;;;;;;1.00;1.00;;;;;20.58;31.35;102601.75;5037309;28;45236;-73
2023/03/04 05:54:52;;;;;;;;;1.00;1.00;;;;;20.58;30.93;102609.66;5037613;28;45429;-72
2023/03/04 05:57:18;;;;;;;;;1.00;1.00;;;;;20.57;31.03;102611.47;5037762;28;45349;-72
2023/03/04 05:59:43;;;;;;;;;2.00;2.00;;;;;20.53;31.19;102603.94;5037537;28;46034;-73
2023/03/04 06:02:08;;;;;;;;;1.00;1.00;;;;;20.58;31.21;102605.19;5037607;28;45632;-73
2023/03/04 06:04:34;;;;;;;;;1.00;1.00;;;;;20.57;31.26;102606.19;5037624;28;45418;-72
2023/03/04 06:06:59;;;;;;;;;2.50;1.00;;;;;20.58;31.28;102607.03;5037173;28;45467;-72
2023/03/04 06:09:24;;;;;;;;;1.00;1.00;;;;;20.53;31.32;102599.47;5037457;28;46123;-72
2023/03/04 06:11:50;;;;;;;;;1.75;1.00;;;;;20.57;31.41;102610.63;5037436;28;45450;-72
2023/03/04 06:14:15;;;;;;;;;2.00;2.00;;;;;20.59;31.22;102608.69;5036741;28;45367;-72
2023/03/04 06:16:40;;;;;;;;;1.00;1.00;;;;;20.59;31.13;102606.88;5037252;28;45509;-73
2023/03/04 06:19:06;;;;;;;;;1.50;1.50;;;;;20.57;30.99;102608.81;5037369;28;46199;-73
2023/03/04 06:21:31;;;;;;;;;1.67;1.67;;;;;20.59;31.34;102611.34;5037057;28;45461;-72
2023/03/04 06:23:56;;;;;;;;;1.25;1.25;;;;;20.58;31.09;102614.97;5037311;28;45444;-73
2023/03/04 06:26:22;;;;;;;;;1.25;1.25;;;;;20.58;31.13;102613.13;5037475;28;45370;-72
2023/03/04 06:28:47;;;;;;;;;2.50;2.00;;;;;20.58;31.51;102615.78;5037272;28;46159;-73
2023/03/04 06:31:12;;;;;;;;;1.00;1.00;;;;;20.58;31.08;102615.78;5036900;28;45525;-73
2023/03/04 06:33:38;;;;;;;;;0.25;0.25;;;;;20.59;31.27;102614.81;5037372;28;45342;-72
2023/03/04 06:36:03;;;;;;;;;2.25;1.00;;;;;20.58;31.05;102618.41;5036487;28;45427;-72
2023/03/04 06:38:29;;;;;;;;;1.00;1.00;;;;;20.59;31.26;102611.34;5036879;28;46145;-72
2023/03/04 06:40:54;;;;;;;;;1.00;1.00;;;;;20.57;31.30;102616.75;5019127;28;45320;-72
2023/03/04 06:43:20;;;;;;;;;0.50;0.50;;;;;20.57;31.07;102622.06;5036895;28;45337;-72
2023/03/04 06:45:46;;;;;;;;;1.50;1.50;;;;;20.57;31.27;102624.69;5036932;28;45409;-73
2023/03/04 06:48:12;;;;;;;;;2.00;2.00;;;;;20.56;31.20;102625.66;5036834;28;46304;-72
2023/03/04 06:50:40;;;;;;;;;2.00;2.00;;;;;20.57;31.23;102624.69;5036524;28;45280;-72
2023/03/04 06:53:05;;;;;;;;;2.00;2.00;;;;;20.57;31.27;102624.69;5036861;28;45443;-73
2023/03/04 06:55:31;;;;;;;;;3.00;2.00;;;;;20.55;31.20;102639.00;5036542;28;45430;-72
2023/03/04 06:57:56;;;;;;;;;1.00;1.00;;;;;20.56;31.08;102636.22;5036665;28;46080;-72
2023/03/04 07:00:24;;;;;;;;;1.00;1.00;;;;;20.53;30.96;102638.31;5036678;28;45371;-73
2023/03/04 07:02:50;;;;;;;;;3.75;0.50;;;;;20.57;31.15;102645.84;5036624;28;45209;-73
2023/03/04 07:05:16;;;;;;;;;0.50;0.50;;;;;20.55;31.27;102644.31;5036252;28;45201;-72
2023/03/04 07:07:41;;;;;;;;;1.00;1.00;;;;;20.50;31.25;102637.59;5036481;28;46296;-72
2023/03/04 07:10:08;;;;;;;;;2.00;2.00;;;;;20.56;31.05;102646.81;5018468;28;45379;-73
2023/03/04 07:12:34;;;;;;;;;2.00;2.00;;;;;20.55;30.99;102645.16;5036465;28;45437;-73
2023/03/04 07:14:59;;;;;;;;;2.00;2.00;;;;;20.56;31.14;102645.97;5036270;28;45483;-73
2023/03/04 07:17:25;;;;;;;;;1.25;1.00;;;;;20.56;31.32;102645.97;5036535;28;45429;-72
2023/03/04 07:19:50;;;;;;;;;2.50;1.25;;;;;20.57;31.09;102651.13;5036076;28;45394;-73
2023/03/04 07:22:15;;;;;;;;;1.00;1.00;;;;;20.56;31.05;102648.59;5035166;28;45367;-73
2023/03/04 07:24:41;;;;;;;;;3.33;2.00;;;;;20.56;31.19;102654.75;5036338;28;45441;-73
2023/03/04 07:27:06;;;;;;;;;2.50;1.00;;;;;20.56;31.01;102656.53;5036109;28;46728;-72
2023/03/04 07:29:32;;;;;;;;;1.00;1.00;;;;;20.55;31.10;102662.81;5036263;28;45394;-73
2023/03/04 07:31:57;;;;;;;;;1.00;1.00;;;;;20.56;31.05;102660.03;5036182;28;45414;-72
2023/03/04 07:34:22;;;;;;;;;1.00;1.00;;;;;20.54;31.37;102659.31;5035667;28;45425;-72
2023/03/04 07:36:47;;;;;;;;;2.00;1.00;;;;;20.56;31.12;102659.19;5035660;28;46768;-72
2023/03/04 07:39:13;;;;;;;;;1.00;1.00;;;;;20.56;31.37;102657.38;5036030;28;45403;-72
2023/03/04 07:41:38;;;;;;;;;1.00;1.00;;;;;20.55;31.10;102666.31;5036158;28;45340;-73
2023/03/04 07:44:05;;;;;;;;;3.50;2.00;;;;;20.56;31.24;102659.19;5036050;28;45600;-72
2023/03/04 07:46:31;;;;;;;;;1.00;1.00;;;;;20.55;31.09;102657.53;5017909;28;47496;-72
2023/03/04 07:48:56;;;;;;;;;1.50;1.50;;;;;20.47;31.26;102642.28;5035323;28;45386;-73
2023/03/04 07:51:24;;;;;;;;;1.00;1.00;;;;;20.57;31.36;102651.13;5036055;28;45287;-72
2023/03/04 07:53:53;;;;;;;;;0.75;0.75;;;;;20.57;31.09;102652.94;5035792;28;45312;-72
2023/03/04 07:56:21;;;;;;;;;4.50;2.00;;;;;20.57;31.21;102655.59;5035486;28;47423;-72
2023/03/04 07:58:47;;;;;;;;;2.00;2.00;;;;;20.56;31.13;102656.53;5035625;28;45280;-73
2023/03/04 08:01:16;;;;;;;;;1.00;1.00;;;;;20.58;31.13;102657.28;5035785;28;45602;-72
2023/03/04 08:03:41;;;;;;;;;1.00;1.00;;;;;20.58;31.05;102659.91;5035465;28;45427;-72
2023/03/04 08:06:09;;;;;;;;;0.75;0.75;;;;;20.57;31.15;102655.59;5035585;28;46304;-73
2023/03/04 08:08:35;;;;;;;;;1.25;1.25;;;;;20.56;31.27;102667.13;5035680;28;45268;-72
2023/03/04 08:11:04;;;;;;;;;1.00;1.00;;;;;20.57;31.01;102658.22;5035746;28;45359;-72
2023/03/04 08:13:30;;;;;;;;;2.00;0.25;;;;;20.56;31.17;102667.13;5035565;28;45315;-72
2023/03/04 08:15:56;;;;;;;;;2.00;2.00;;;;;20.49;31.10;102664.16;5035057;28;47256;-73
2023/03/04 08:18:21;;;;;;;;;2.00;0.75;;;;;20.55;31.20;102668.09;5035065;28;45410;-72
2023/03/04 08:20:46;;;;;;;;;1.00;1.00;;;;;20.54;31.05;102677.81;5035656;28;45419;-72
2023/03/04 08:23:12;;;;;;;;;3.00;1.00;;;;;20.45;31.35;102660.09;5035558;28;45431;-72
2023/03/04 08:25:41;;;;;;;;;1.75;1.75;;;;;20.56;31.12;102680.34;5035301;28;45293;-72
2023/03/04 08:28:08;;;;;;;;;0.00;0.00;;;;;20.55;31.52;102682.16;5035358;28;45475;-72
2023/03/04 08:30:33;;;;;;;;;1.00;1.00;;;;;20.56;31.11;102678.53;5035023;28;45410;-72
2023/03/04 08:33:00;;;;;;;;;1.00;1.00;;;;;20.54;31.17;102677.81;5034986;28;45392;-73
2023/03/04 08:35:25;;;;;;;;;1.00;1.00;;;;;20.55;31.39;102674.22;5037540;28;46253;-75
2023/03/04 08:37:51;;;;;;;;;2.00;0.00;;;;;20.56;31.17;102681.19;5038793;28;45478;-73
2023/03/04 08:40:16;;;;;;;;;1.00;1.00;;;;;20.57;31.52;102684.69;5021034;28;45476;-75
2023/03/04 08:42:41;;;;;;;;;1.25;1.25;;;;;20.57;31.46;102684.69;5038973;28;45393;-76
2023/03/04 08:45:08;;;;;;;;;1.00;1.00;;;;;20.56;31.04;102686.47;5038673;28;46097;-73
2023/03/04 08:47:34;;;;;;;;;1.00;1.00;;;;;20.57;31.46;102682.88;5038432;28;45287;-75
2023/03/04 08:49:59;;;;;;;;;1.50;1.50;;;;;20.58;31.37;102691.66;5038615;28;45659;-74
2023/03/04 08:52:24;;;;;;;;;0.75;0.50;;;;;20.58;31.51;102687.19;5037597;28;45415;-73
2023/03/04 08:54:50;;;;;;;;;1.00;1.00;;;;;20.59;31.68;102685.38;5038442;28;45200;-74
2023/03/04 08:57:15;;;;;;;;;1.00;1.00;;;;;20.48;31.77;102670.41;5038464;28;45390;-74
2023/03/04 08:59:40;;;;;;;;;1.00;0.75;;;;;20.60;31.88;102687.91;5038775;28;45439;-75
2023/03/04 09:02:06;;;;;;;;;2.33;1.33;;;;;20.60;32.13;102693.22;5032819;28;45410;-74
2023/03/04 09:04:31;;;;;;;;;1.00;1.00;;;;;20.62;32.22;102688.63;5015374;28;46871;-74
2023/03/04 09:06:56;;;;;;;;;1.00;1.00;;;;;20.65;32.57;102690.19;5031694;28;45399;-74
2023/03/04 09:09:22;;;;;;;;;2.00;2.00;;;;;20.66;32.27;102697.13;5036223;28;45317;-74
2023/03/04 09:11:47;;;;;;;;;2.00;1.50;;;;;20.68;32.45;102689.94;5038101;28;45346;-75
2023/03/04 09:14:12;;;;;;;;;2.50;1.00;;;;;20.69;32.58;102688.94;5038117;28;46100;-74
2023/03/04 09:16:38;;;;;;;;;1.50;1.50;;;;;20.72;32.62;102690.50;5037518;28;45353;-75
2023/03/04 09:19:03;;;;;;;;;3.75;1.00;;;;;20.73;32.93;102689.56;5033754;28;45784;-76
2023/03/04 09:21:28;;;;;;;;;2.00;2.00;;;;;20.75;32.75;102692.91;5028784;28;45321;-75
2023/03/04 09:23:54;;;;;;;;;3.75;2.50;;;;;20.77;32.69;102695.41;5037208;28;46030;-75
2023/03/04 09:26:25;;;;;;;;;2.00;2.00;;;;;20.67;32.96;102675.03;5036543;28;45460;-75
2023/03/04 09:28:53;;;;;;;;;1.25;1.00;;;;;20.79;32.94;102696.16;5037536;28;45241;-75
2023/03/04 09:31:20;;;;;;;;;3.00;3.00;;;;;20.81;32.48;102692.41;5036487;28;45537;-75
2023/03/04 09:33:45;;;;;;;;;2.75;1.00;;;;;20.82;33.10;102691.44;5018966;28;47401;-73
2023/03/04 09:36:12;;;;;;;;;3.50;2.00;;;;;20.76;32.92;102684.03;5032420;28;45434;-79
2023/03/04 09:38:39;;;;;;;;;1.50;1.50;;;;;20.83;33.02;102689.63;5036355;28;45485;-77
2023/03/04 09:41:14;;;;;;;;;1.00;1.00;;;;;20.85;32.98;102696.47;5037188;28;45391;-76
2023/03/04 09:43:40;;;;;;;;;7.75;3.75;;;;;20.79;31.58;102688.22;5036347;28;47339;-79
2023/03/04 09:46:13;;;;;;;;;2.00;2.00;;;;;20.78;32.35;102690.00;5037040;28;45357;-78
2023/03/04 09:48:44;;;;;;;;;3.00;3.00;;;;;20.78;32.53;102682.06;5039604;28;45281;-79
2023/03/04 09:51:31;;;;;;;;;2.25;2.25;;;;;20.79;32.47;102683.75;5044820;28;45409;-79
2023/03/04 09:54:14;;;;;;;;;1.00;1.00;;;;;20.82;32.46;102682.66;5027037;28;46315;-79
2023/03/04 09:56:40;;;;;;;;;1.25;1.00;;;;;20.82;32.47;102670.25;5043746;28;45397;-79
2023/03/04 09:59:26;;;;;;;;;2.75;2.75;;;;;20.84;32.52;102676.25;5046087;28;45351;-78
2023/03/04 10:01:54;;;;;;;;;2.25;2.25;;;;;20.85;32.33;102677.09;5046573;28;45478;-78
2023/03/04 10:04:39;;;;;;;;;3.75;2.25;;;;;20.85;32.79;102672.66;5044378;28;46035;-79
2023/03/04 10:07:14;;;;;;;;;2.75;2.00;;;;;20.88;32.28;102678.66;5042884;28;45296;-79
2023/03/04 10:09:48;;;;;;;;;2.50;2.00;;;;;20.88;32.45;102676.84;5040280;28;45393;-78
2023/03/04 10:12:18;;;;;;;;;2.50;1.00;;;;;20.83;32.32;102661.38;5039159;28;45392;-78
2023/03/04 10:14:58;;;;;;;;;3.00;2.00;;;;;20.85;32.11;102662.06;5039405;28;46240;-78
2023/03/04 10:17:34;;;;;;;;;1.50;1.50;;;;;20.89;32.40;102661.81;5041445;28;45319;-78
2023/03/04 10:20:08;;;;;;;;;2.00;2.00;;;;;20.90;32.33;102669.63;5039488;28;45470;-78
2023/03/04 10:22:45;;;;;;;;;1.00;0.00;;;;;20.90;32.46;102660.84;5040065;28;45169;-78
2023/03/04 10:25:25;;;;;;;;;1.50;1.00;;;;;20.91;32.19;102665.19;5040296;28;46037;-79
2023/03/04 10:28:17;;;;;;;;;5.25;3.00;;;;;20.87;31.91;102656.66;5038600;28;45535;-78
2023/03/04 10:31:04;;;;;;;;;2.75;2.75;;;;;20.92;32.20;102659.75;5041053;28;45369;-77
2023/03/04 10:33:35;;;;;;;;;2.00;2.00;;;;;20.91;32.29;102668.66;5041377;28;45570;-78
2023/03/04 10:36:05;;;;;;;;;1.00;1.00;;;;;20.92;31.97;102665.03;5039300;28;46432;-78
2023/03/04 10:38:37;;;;;;;;;2.00;1.75;;;;;20.93;32.12;102660.59;5039179;28;45571;-78
2023/03/04 10:41:24;;;;;;;;;2.25;2.00;;;;;20.89;32.33;102656.53;5040223;28;45308;-78
2023/03/04 10:44:22;;;;;;;;;3.00;2.50;;;;;20.94;31.97;102662.28;5038022;28;45300;-79
2023/03/04 10:46:48;;;;;;;;;2.00;2.00;;;;;20.94;32.22;102667.56;4938242;28;45537;-77
2023/03/04 10:49:16;;;;;;;;;0.75;0.75;;;;;20.95;31.90;102658.66;4938911;28;45341;-78
2023/03/04 10:51:46;;;;;;;;;3.50;2.00;;;;;20.95;32.31;102648.91;4941342;28;45459;-78
2023/03/04 10:54:39;;;;;;;;;2.00;1.00;;;;;20.96;31.72;102660.34;4941698;28;45314;-80
2023/03/04 10:57:17;;;;;;;;;3.75;2.50;;;;;20.91;32.06;102646.66;4936311;28;46146;-78
2023/03/04 10:59:57;;;;;;;;;3.00;2.50;;;;;20.97;32.17;102654.09;4938012;28;45385;-77
2023/03/04 11:02:34;;;;;;;;;5.00;2.50;;;;;20.97;31.87;102659.38;4937440;28;45476;-78
2023/03/04 11:05:14;;;;;;;;;2.00;2.00;;;;;20.98;32.23;102650.47;4937608;28;45425;-79
2023/03/04 11:07:42;;;;;;;;;2.00;2.00;;;;;20.93;32.06;102647.38;4937600;28;46236;-79
2023/03/04 11:10:09;;;;;;;;;1.00;1.00;;;;;20.95;31.60;102659.50;4937616;28;45421;-78
2023/03/04 11:12:34;;;;;;;;;2.00;2.00;;;;;20.96;31.97;102655.06;4938301;28;45511;-79
2023/03/04 11:15:01;;;;;;;;;2.00;2.00;;;;;20.88;31.86;102642.47;4941792;28;45414;-77
2023/03/04 11:17:38;;;;;;;;;1.50;1.50;;;;;20.96;32.00;102663.00;4957526;28;46235;-80
2023/03/04 11:20:13;;;;;;;;;2.00;2.00;;;;;20.95;31.83;102661.28;4957575;28;45359;-79
2023/03/04 11:22:44;;;;;;;;;0.50;0.50;;;;;20.95;31.95;102658.66;4994826;28;45270;-79
2023/03/04 11:25:31;;;;;;;;;1.50;1.25;;;;;20.95;31.91;102656.00;5019467;28;45359;-78